createdAt,value
2023-02-24T00:02:06.421Z,98744.59
2023-02-24T00:04:40.072Z,98697.88
2023-02-24T00:07:13.253Z,98724.84
2023-02-24T00:09:41.429Z,98711.09
2023-02-24T00:12:15.858Z,98726.16
2023-02-24T00:14:46.216Z,98724.63
2023-02-24T00:17:14.915Z,98722.56
2023-02-24T00:19:43.533Z,98708.28
2023-02-24T00:22:11.731Z,98714.53
2023-02-24T00:24:40.278Z,98704.78
2023-02-24T00:27:11.818Z,98648.28
2023-02-24T00:29:42.133Z,98716.03
2023-02-24T00:32:13.729Z,98715.25
2023-02-24T00:34:43.465Z,98703.97
2023-02-24T00:37:12.246Z,98680.19
2023-02-24T00:39:42.090Z,98629.44
2023-02-24T00:42:12.260Z,98685.13
2023-02-24T00:44:46.536Z,98586.09
2023-02-24T00:47:17.678Z,98678.44
2023-02-24T00:49:46.105Z,98680.28
2023-02-24T00:52:20.835Z,98676.38
2023-02-24T00:54:50.885Z,98676.25
2023-02-24T00:57:21.522Z,98511.13
2023-02-24T00:59:52.414Z,98664.91
2023-02-24T01:02:21.515Z,98618.13
2023-02-24T01:04:51.227Z,98627.19
2023-02-24T01:07:19.350Z,98648.78
2023-02-24T01:09:51.191Z,98660.44
2023-02-24T01:12:22.528Z,98655.19
2023-02-24T01:14:53.163Z,98650.72
2023-02-24T01:17:22.977Z,98509.97
2023-02-24T01:19:52.225Z,98579.28
2023-02-24T01:22:21.897Z,98639.94
2023-02-24T01:24:50.124Z,98599.88
2023-02-24T01:27:19.670Z,98633.44
2023-02-24T01:29:48.752Z,98622.16
2023-02-24T01:32:20.928Z,98605.47
2023-02-24T01:34:52.765Z,98623.56
2023-02-24T01:37:21.724Z,98617.84
2023-02-24T01:39:50.420Z,98624.13
2023-02-24T01:42:22.218Z,98616.75
2023-02-24T01:44:52.386Z,98605.50
2023-02-24T01:47:23.060Z,98618.19
2023-02-24T01:49:54.954Z,98612.78
2023-02-24T01:52:30.849Z,98608.22
2023-02-24T01:55:09.380Z,98609.72
2023-02-24T01:57:39.604Z,98553.97
2023-02-24T02:00:12.677Z,98594.47
2023-02-24T02:02:50.736Z,98591.13
2023-02-24T02:05:19.419Z,98604.59
2023-02-24T02:07:47.450Z,98591.13
2023-02-24T02:10:15.556Z,98557.50
2023-02-24T02:12:45.113Z,98602.94
2023-02-24T02:15:20.415Z,98588.94
2023-02-24T02:18:24.664Z,98549.16
2023-02-24T02:21:36.903Z,98588.38
2023-02-24T02:24:34.454Z,98595.34
2023-02-24T02:27:29.546Z,98590.66
2023-02-24T02:30:06.363Z,98581.38
2023-02-24T02:33:31.650Z,98578.34
2023-02-24T02:36:22.869Z,98574.94
2023-02-24T02:39:03.348Z,98569.25
2023-02-24T02:42:14.423Z,98553.84
2023-02-24T02:45:23.157Z,98561.34
2023-02-24T02:48:31.477Z,98563.28
2023-02-24T02:51:11.366Z,98559.84
2023-02-24T02:54:15.939Z,98532.63
2023-02-24T02:56:53.816Z,98548.16
2023-02-24T02:59:29.943Z,98539.44
2023-02-24T03:02:11.859Z,98540.25
2023-02-24T03:04:54.780Z,98541.34
2023-02-24T03:07:31.123Z,98543.84
2023-02-24T03:10:11.010Z,98489.28
2023-02-24T03:12:41.405Z,98534.25
2023-02-24T03:15:13.130Z,98527.34
2023-02-24T03:17:45.475Z,98535.22
2023-02-24T03:20:36.065Z,98531.78
2023-02-24T03:23:16.841Z,98522.19
2023-02-24T03:26:00.464Z,98523.88
2023-02-24T03:28:39.230Z,98521.88
2023-02-24T03:31:23.144Z,98522.75
2023-02-24T03:34:06.809Z,98465.53
2023-02-24T03:36:35.801Z,98497.88
2023-02-24T03:39:11.345Z,98483.72
2023-02-24T03:42:01.376Z,98489.56
2023-02-24T03:44:32.339Z,98491.91
2023-02-24T03:47:02.424Z,98470.66
2023-02-24T03:49:30.502Z,98441.09
2023-02-24T03:52:39.316Z,98452.47
2023-02-24T03:55:40.545Z,98485.63
2023-02-24T03:58:23.526Z,98440.56
2023-02-24T04:01:20.021Z,98472.31
2023-02-24T04:04:10.097Z,98475.22
2023-02-24T04:07:15.070Z,98423.88
2023-02-24T04:10:11.030Z,98472.16
2023-02-24T04:12:53.924Z,98423.31
2023-02-24T04:15:44.108Z,98420.22
2023-02-24T04:18:22.661Z,98402.78
2023-02-24T04:20:53.524Z,98403.19
2023-02-24T04:23:31.880Z,98430.59
2023-02-24T04:26:01.969Z,98427.94
2023-02-24T04:28:31.435Z,98387.75
2023-02-24T04:31:10.745Z,98427.69
2023-02-24T04:33:40.748Z,98412.94
2023-02-24T04:36:13.066Z,98423.19
2023-02-24T04:38:41.361Z,98373.81
2023-02-24T04:41:10.491Z,98403.47
2023-02-24T04:43:38.663Z,98410.97
2023-02-24T04:46:08.209Z,98410.00
2023-02-24T04:48:36.592Z,98404.28
2023-02-24T04:51:06.753Z,98401.50
2023-02-24T04:53:34.714Z,98403.16
2023-02-24T04:56:09.409Z,98366.97
2023-02-24T04:58:41.620Z,98386.78
2023-02-24T05:01:11.218Z,98395.94
2023-02-24T05:03:42.892Z,98380.97
2023-02-24T05:06:16.325Z,98275.50
2023-02-24T05:08:45.101Z,98383.13
2023-02-24T05:11:18.974Z,98381.06
2023-02-24T05:13:47.329Z,98375.78
2023-02-24T05:16:20.656Z,98378.81
2023-02-24T05:18:48.977Z,98336.78
2023-02-24T05:21:36.585Z,98368.63
2023-02-24T05:24:07.124Z,98331.09
2023-02-24T05:26:41.993Z,98350.34
2023-02-24T05:29:12.616Z,98360.44
2023-02-24T05:31:40.741Z,98352.34
2023-02-24T05:34:09.136Z,98354.16
2023-02-24T05:36:41.288Z,98364.03
2023-02-24T05:39:12.652Z,98359.75
2023-02-24T05:41:43.088Z,98303.88
2023-02-24T05:44:17.301Z,98357.78
2023-02-24T05:46:47.211Z,98353.69
2023-02-24T05:49:27.459Z,98303.22
2023-02-24T05:52:05.748Z,98357.78
2023-02-24T05:54:45.558Z,98348.88
2023-02-24T05:57:19.163Z,98309.81
2023-02-24T05:59:56.196Z,98347.41
2023-02-24T06:02:37.533Z,98305.41
2023-02-24T06:05:09.084Z,98239.19
2023-02-24T06:07:38.744Z,98326.81
2023-02-24T06:10:10.672Z,98299.41
2023-02-24T06:12:40.068Z,98333.31
2023-02-24T06:15:08.795Z,98329.38
2023-02-24T06:17:37.279Z,98336.78
2023-02-24T06:20:15.129Z,98329.16
2023-02-24T06:22:43.376Z,98199.47
2023-02-24T06:25:12.150Z,98330.88
2023-02-24T06:27:40.724Z,98330.16
2023-02-24T06:30:10.677Z,98292.03
2023-02-24T06:32:39.071Z,98280.19
2023-02-24T06:35:08.758Z,98323.66
2023-02-24T06:37:37.388Z,98335.88
2023-02-24T06:40:16.098Z,98289.41
2023-02-24T06:42:51.152Z,98310.09
2023-02-24T06:45:19.263Z,98313.84
2023-02-24T06:47:49.037Z,98266.19
2023-02-24T06:50:20.427Z,98306.44
2023-02-24T06:52:49.920Z,98263.25
2023-02-24T06:55:25.664Z,98293.22
2023-02-24T06:57:59.665Z,98300.41
2023-02-24T07:00:42.906Z,98306.50
2023-02-24T07:03:16.685Z,98295.56
2023-02-24T07:05:54.599Z,98309.03
2023-02-24T07:08:27.405Z,98266.06
2023-02-24T07:11:00.062Z,98267.53
2023-02-24T07:13:30.028Z,98298.81
2023-02-24T07:16:07.390Z,98256.69
2023-02-24T07:18:37.206Z,98269.94
2023-02-24T07:21:11.649Z,98268.06
2023-02-24T07:23:41.830Z,98275.56
2023-02-24T07:26:19.569Z,98127.69
2023-02-24T07:28:48.209Z,98284.50
2023-02-24T07:31:21.579Z,98271.00
2023-02-24T07:33:54.095Z,98252.28
2023-02-24T07:36:30.446Z,98282.63
2023-02-24T07:38:59.560Z,98242.31
2023-02-24T07:41:30.449Z,98237.19
2023-02-24T07:44:00.126Z,98258.47
2023-02-24T07:46:29.518Z,98223.59
2023-02-24T07:49:00.024Z,98221.91
2023-02-24T07:51:29.952Z,98258.31
2023-02-24T07:54:01.490Z,98267.41
2023-02-24T07:56:33.191Z,98265.75
2023-02-24T07:59:08.139Z,98215.66
2023-02-24T08:01:42.332Z,98262.81
2023-02-24T08:04:12.823Z,98250.88
2023-02-24T08:06:47.932Z,98266.97
2023-02-24T08:09:21.135Z,98244.28
2023-02-24T08:11:55.865Z,98203.16
2023-02-24T08:14:32.868Z,98211.31
2023-02-24T08:17:07.131Z,98263.91
2023-02-24T08:19:47.179Z,98253.34
2023-02-24T08:22:24.517Z,98253.19
2023-02-24T08:25:06.034Z,98210.47
2023-02-24T08:27:43.550Z,98207.78
2023-02-24T08:30:30.001Z,98225.78
2023-02-24T08:33:00.109Z,98252.34
2023-02-24T08:35:37.790Z,98240.63
2023-02-24T08:38:18.959Z,98238.09
2023-02-24T08:40:51.618Z,98247.88
2023-02-24T08:43:33.313Z,98242.75
2023-02-24T08:46:13.848Z,98240.75
2023-02-24T08:48:47.954Z,98236.13
2023-02-24T08:51:28.950Z,98242.09
2023-02-24T08:54:01.285Z,98204.59
2023-02-24T08:56:36.767Z,98235.81
2023-02-24T08:59:07.014Z,98211.66
2023-02-24T09:02:03.697Z,98217.09
2023-02-24T09:04:34.893Z,98221.59
2023-02-24T09:07:12.118Z,98211.13
2023-02-24T09:09:42.701Z,98215.66
2023-02-24T09:12:24.849Z,98215.66
2023-02-24T09:15:04.994Z,98224.75
2023-02-24T09:17:45.982Z,98228.38
2023-02-24T09:20:41.965Z,98218.09
2023-02-24T09:23:20.384Z,98171.13
2023-02-24T09:25:54.690Z,98177.75
2023-02-24T09:28:27.951Z,98107.13
2023-02-24T09:30:59.222Z,98170.16
2023-02-24T09:33:42.046Z,98222.72
2023-02-24T09:36:30.559Z,98201.22
2023-02-24T09:39:00.860Z,98048.81
2023-02-24T09:41:54.867Z,98217.78
2023-02-24T09:44:44.586Z,98211.97
2023-02-24T09:47:57.436Z,98200.72
2023-02-24T09:51:03.425Z,98190.69
2023-02-24T09:53:49.748Z,98137.03
2023-02-24T09:56:24.911Z,98179.84
2023-02-24T09:59:13.017Z,98202.84
2023-02-24T10:02:31.398Z,98187.78
2023-02-24T10:05:28.788Z,98152.22
2023-02-24T10:07:58.641Z,98137.78
2023-02-24T10:10:36.082Z,98185.38
2023-02-24T10:13:30.663Z,98147.38
2023-02-24T10:16:07.329Z,98189.78
2023-02-24T10:19:15.539Z,98169.81
2023-02-24T10:22:03.517Z,98158.22
2023-02-24T10:24:38.018Z,98171.44
2023-02-24T10:27:16.821Z,98160.81
2023-02-24T10:30:20.093Z,98147.53
2023-02-24T10:32:59.114Z,98148.53
2023-02-24T10:35:39.394Z,98157.28
2023-02-24T10:38:07.597Z,98157.13
2023-02-24T10:40:56.762Z,98150.31
2023-02-24T10:43:30.714Z,98086.34
2023-02-24T10:46:17.532Z,98149.13
2023-02-24T10:49:01.681Z,98138.56
2023-02-24T10:51:42.569Z,98138.88
2023-02-24T10:54:45.367Z,98132.47
2023-02-24T10:57:18.888Z,98106.63
2023-02-24T11:00:18.845Z,98061.88
2023-02-24T11:03:08.539Z,98104.31
2023-02-24T11:06:04.408Z,98071.69
2023-02-24T11:08:48.030Z,98095.75
2023-02-24T11:11:29.995Z,98070.88
2023-02-24T11:14:20.586Z,98096.25
2023-02-24T11:17:14.874Z,98076.75
2023-02-24T11:20:11.096Z,98035.81
2023-02-24T11:22:46.174Z,98042.28
2023-02-24T11:25:36.253Z,98059.53
2023-02-24T11:28:06.227Z,98073.31
2023-02-24T11:30:52.990Z,98063.56
2023-02-24T11:33:42.801Z,98068.19
2023-02-24T11:36:37.407Z,98075.50
2023-02-24T11:39:37.546Z,98060.78
2023-02-24T11:42:15.331Z,98068.06
2023-02-24T11:45:03.461Z,98064.28
2023-02-24T11:47:52.102Z,98006.44
2023-02-24T11:51:02.352Z,98042.13
2023-02-24T11:53:57.914Z,98054.72
2023-02-24T11:56:33.839Z,98049.19
2023-02-24T11:59:30.820Z,98047.25
2023-02-24T12:02:39.027Z,98036.81
2023-02-24T12:05:25.776Z,98043.09
2023-02-24T12:08:06.129Z,97993.75
2023-02-24T12:11:23.461Z,98030.41
2023-02-24T12:14:03.256Z,97988.78
2023-02-24T12:16:37.918Z,98028.72
2023-02-24T12:19:21.163Z,98021.28
2023-02-24T12:22:00.115Z,97971.41
2023-02-24T12:24:28.336Z,98023.09
2023-02-24T12:27:39.632Z,98011.38
2023-02-24T12:30:34.259Z,98018.31
2023-02-24T12:33:31.122Z,98013.38
2023-02-24T12:36:14.738Z,98012.25
2023-02-24T12:39:21.553Z,97960.59
2023-02-24T12:42:21.014Z,97996.22
2023-02-24T12:45:27.120Z,97993.91
2023-02-24T12:48:24.660Z,98000.16
2023-02-24T12:51:14.476Z,97976.03
2023-02-24T12:54:05.731Z,97984.13
2023-02-24T12:56:58.248Z,97955.66
2023-02-24T12:59:32.326Z,97976.06
2023-02-24T13:02:25.283Z,97981.38
2023-02-24T13:05:45.310Z,97978.75
2023-02-24T13:08:37.634Z,97966.66
2023-02-24T13:11:28.311Z,97964.69
2023-02-24T13:14:05.726Z,97976.78
2023-02-24T13:16:36.695Z,97958.88
2023-02-24T13:19:28.593Z,97910.72
2023-02-24T13:22:31.108Z,97961.56
2023-02-24T13:25:08.313Z,97958.78
2023-02-24T13:27:43.356Z,97966.22
2023-02-24T13:30:27.097Z,97956.78
2023-02-24T13:33:04.872Z,97957.09
2023-02-24T13:35:37.061Z,97960.75
2023-02-24T13:38:22.383Z,97910.91
2023-02-24T13:40:51.095Z,97960.06
2023-02-24T13:43:29.374Z,97955.28
2023-02-24T13:46:17.518Z,97948.31
2023-02-24T13:49:13.698Z,97875.53
2023-02-24T13:52:04.273Z,97906.13
2023-02-24T13:55:19.994Z,97947.00
2023-02-24T13:57:53.771Z,97937.75
2023-02-24T14:00:46.075Z,97937.91
2023-02-24T14:03:22.357Z,97934.47
2023-02-24T14:05:52.947Z,97897.91
2023-02-24T14:08:43.903Z,97860.84
2023-02-24T14:11:17.125Z,97937.44
2023-02-24T14:13:54.520Z,97930.66
2023-02-24T14:16:33.425Z,97929.97
2023-02-24T14:19:03.390Z,97882.19
2023-02-24T14:21:34.340Z,97934.16
2023-02-24T14:24:12.394Z,97938.47
2023-02-24T14:26:54.957Z,97890.16
2023-02-24T14:29:28.806Z,97925.88
2023-02-24T14:32:03.787Z,97932.69
2023-02-24T14:34:34.056Z,97921.94
2023-02-24T14:37:04.402Z,97934.66
2023-02-24T14:39:34.608Z,97890.50
2023-02-24T14:42:09.726Z,97926.72
2023-02-24T14:44:57.100Z,97914.31
2023-02-24T14:47:29.013Z,97884.22
2023-02-24T14:50:04.695Z,97877.09
2023-02-24T14:52:44.132Z,97892.97
2023-02-24T14:55:16.336Z,97924.41
2023-02-24T14:58:06.394Z,97910.69
2023-02-24T15:00:41.982Z,97910.34
2023-02-24T15:03:13.530Z,97921.59
2023-02-24T15:05:49.076Z,97870.97
2023-02-24T15:08:36.986Z,97868.50
2023-02-24T15:11:16.997Z,97897.13
2023-02-24T15:13:50.567Z,97908.72
2023-02-24T15:16:41.906Z,97906.06
2023-02-24T15:19:45.967Z,97898.13
2023-02-24T15:22:28.654Z,97893.16
2023-02-24T15:25:28.171Z,97888.22
2023-02-24T15:28:04.239Z,97863.38
2023-02-24T15:30:55.822Z,97849.03
2023-02-24T15:33:26.243Z,97833.47
2023-02-24T15:36:00.173Z,97870.50
2023-02-24T15:38:40.640Z,97872.31
2023-02-24T15:41:11.449Z,97837.28
2023-02-24T15:43:50.596Z,97872.66
2023-02-24T15:46:37.545Z,97857.78
2023-02-24T15:49:06.467Z,97859.75
2023-02-24T15:51:46.392Z,97844.88
2023-02-24T15:54:31.740Z,97854.81
2023-02-24T15:57:02.898Z,97853.13
2023-02-24T15:59:31.743Z,97859.09
2023-02-24T16:01:59.935Z,97825.53
2023-02-24T16:04:28.398Z,97862.41
2023-02-24T16:06:58.305Z,97855.16
2023-02-24T16:09:37.487Z,97798.09
2023-02-24T16:12:13.571Z,97830.66
2023-02-24T16:14:44.275Z,97789.34
2023-02-24T16:17:41.780Z,97796.25
2023-02-24T16:20:19.375Z,97829.69
2023-02-24T16:22:48.250Z,97839.09
2023-02-24T16:25:17.691Z,97843.03
2023-02-24T16:27:46.767Z,97829.19
2023-02-24T16:30:22.421Z,97826.84
2023-02-24T16:32:51.609Z,97826.16
2023-02-24T16:35:21.630Z,97829.19
2023-02-24T16:37:50.611Z,97828.19
2023-02-24T16:40:34.395Z,97811.81
2023-02-24T16:43:03.607Z,97781.06
2023-02-24T16:45:32.999Z,97825.19
2023-02-24T16:48:05.542Z,97822.06
2023-02-24T16:50:40.920Z,97813.28
2023-02-24T16:53:17.848Z,97810.13
2023-02-24T16:55:47.523Z,97807.03
2023-02-24T16:58:17.712Z,97688.28
2023-02-24T17:00:52.868Z,97799.22
2023-02-24T17:03:27.253Z,97803.84
2023-02-24T17:05:56.259Z,97767.66
2023-02-24T17:08:24.691Z,97802.88
2023-02-24T17:10:53.137Z,97814.75
2023-02-24T17:13:22.912Z,97765.69
2023-02-24T17:15:55.574Z,97806.81
2023-02-24T17:18:25.932Z,97804.84
2023-02-24T17:20:54.691Z,97790.81
2023-02-24T17:23:22.826Z,97798.59
2023-02-24T17:25:56.950Z,97791.97
2023-02-24T17:28:26.153Z,97777.75
2023-02-24T17:30:54.664Z,97787.88
2023-02-24T17:33:23.072Z,97777.78
2023-02-24T17:35:51.329Z,97768.69
2023-02-24T17:38:22.560Z,97754.97
2023-02-24T17:40:50.927Z,97757.16
2023-02-24T17:43:19.385Z,97753.00
2023-02-24T17:45:47.956Z,97748.06
2023-02-24T17:48:16.885Z,97732.84
2023-02-24T17:50:47.813Z,97741.94
2023-02-24T17:53:16.460Z,97702.94
2023-02-24T17:56:01.634Z,97715.00
2023-02-24T17:58:31.752Z,97725.59
2023-02-24T18:01:02.491Z,97726.41
2023-02-24T18:03:32.212Z,97723.09
2023-02-24T18:06:14.096Z,97715.19
2023-02-24T18:08:42.627Z,97690.56
2023-02-24T18:11:17.319Z,97670.06
2023-02-24T18:13:46.156Z,97687.44
2023-02-24T18:16:16.644Z,97708.22
2023-02-24T18:18:45.010Z,97670.41
2023-02-24T18:21:13.443Z,97704.75
2023-02-24T18:23:42.349Z,97725.41
2023-02-24T18:26:14.669Z,97720.44
2023-02-24T18:28:43.936Z,97729.53
2023-02-24T18:31:23.252Z,97748.38
2023-02-24T18:33:52.521Z,97739.25
2023-02-24T18:36:21.239Z,97751.66
2023-02-24T18:38:50.946Z,97734.44
2023-02-24T18:41:24.229Z,97704.84
2023-02-24T18:43:57.651Z,97738.06
2023-02-24T18:46:27.420Z,97722.53
2023-02-24T18:48:58.789Z,97742.75
2023-02-24T18:51:29.364Z,97727.03
2023-02-24T18:54:00.782Z,97740.09
2023-02-24T18:56:32.496Z,97744.72
2023-02-24T18:59:02.544Z,97746.66
2023-02-24T19:01:38.833Z,97699.91
2023-02-24T19:04:09.164Z,97744.38
2023-02-24T19:06:38.494Z,97731.19
2023-02-24T19:09:11.507Z,97734.28
2023-02-24T19:11:46.497Z,97728.00
2023-02-24T19:14:27.003Z,97702.25
2023-02-24T19:16:56.291Z,97692.16
2023-02-24T19:19:25.827Z,97700.91
2023-02-24T19:21:54.179Z,97704.41
2023-02-24T19:24:22.536Z,97652.19
2023-02-24T19:26:53.677Z,97655.16
2023-02-24T19:29:22.573Z,97689.84
2023-02-24T19:31:55.109Z,97678.94
2023-02-24T19:34:23.817Z,97626.25
2023-02-24T19:36:52.877Z,97626.41
2023-02-24T19:39:21.537Z,97655.66
2023-02-24T19:41:50.609Z,97637.00
2023-02-24T19:44:20.974Z,97667.22
2023-02-24T19:46:49.948Z,97644.75
2023-02-24T19:49:18.554Z,97665.38
2023-02-24T19:51:48.311Z,97684.22
2023-02-24T19:54:17.145Z,97679.09
2023-02-24T19:56:45.406Z,97638.66
2023-02-24T19:59:14.039Z,97672.84
2023-02-24T20:01:44.172Z,97617.69
2023-02-24T20:04:13.228Z,97668.56
2023-02-24T20:06:44.022Z,97674.16
2023-02-24T20:09:23.805Z,97668.72
2023-02-24T20:11:52.963Z,97662.59
2023-02-24T20:14:24.515Z,97605.31
2023-02-24T20:16:52.995Z,97662.94
2023-02-24T20:19:21.743Z,97657.84
2023-02-24T20:21:50.168Z,97659.31
2023-02-24T20:24:19.186Z,97660.31
2023-02-24T20:26:50.046Z,97608.78
2023-02-24T20:29:21.048Z,97648.56
2023-02-24T20:31:50.101Z,97655.03
2023-02-24T20:34:18.852Z,97642.28
2023-02-24T20:36:47.804Z,97639.81
2023-02-24T20:39:16.376Z,97585.81
2023-02-24T20:41:45.775Z,97570.00
2023-02-24T20:44:14.375Z,97584.34
2023-02-24T20:46:42.726Z,97571.78
2023-02-24T20:49:15.183Z,97624.31
2023-02-24T20:51:44.103Z,97621.00
2023-02-24T20:54:14.064Z,97593.75
2023-02-24T20:56:44.647Z,97610.25
2023-02-24T20:59:19.681Z,97587.28
2023-02-24T21:01:49.828Z,97634.38
2023-02-24T21:04:21.367Z,97623.47
2023-02-24T21:06:51.733Z,97622.81
2023-02-24T21:09:20.060Z,97553.47
2023-02-24T21:11:48.509Z,97572.97
2023-02-24T21:14:18.057Z,97573.94
2023-02-24T21:16:46.508Z,97620.50
2023-02-24T21:19:15.236Z,97574.94
2023-02-24T21:21:43.797Z,97551.53
2023-02-24T21:24:11.984Z,97588.50
2023-02-24T21:26:41.698Z,97589.97
2023-02-24T21:29:10.904Z,97541.13
2023-02-24T21:31:39.429Z,97568.84
2023-02-24T21:34:11.681Z,97537.84
2023-02-24T21:36:43.782Z,97550.56
2023-02-24T21:39:15.489Z,97482.75
2023-02-24T21:41:44.719Z,97382.50
2023-02-24T21:44:17.270Z,97485.03
2023-02-24T21:46:46.010Z,97477.13
2023-02-24T21:49:14.554Z,97520.00
2023-02-24T21:51:43.122Z,97522.78
2023-02-24T21:54:15.751Z,97516.84
2023-02-24T21:56:44.636Z,97499.19
2023-02-24T21:59:15.969Z,97524.69
2023-02-24T22:01:46.414Z,97520.09
2023-02-24T22:04:19.438Z,97518.63
2023-02-24T22:06:48.600Z,97510.06
2023-02-24T22:09:20.212Z,97465.53
2023-02-24T22:11:49.881Z,97499.69
2023-02-24T22:14:19.274Z,97498.22
2023-02-24T22:16:48.432Z,97498.06
2023-02-24T22:19:17.115Z,97487.50
2023-02-24T22:21:46.362Z,97496.56
2023-02-24T22:24:16.872Z,97415.38
2023-02-24T22:26:45.740Z,97501.84
2023-02-24T22:29:14.033Z,97495.59
2023-02-24T22:31:48.383Z,97484.22
2023-02-24T22:34:20.222Z,97475.13
2023-02-24T22:37:43.716Z,97474.00
2023-02-24T22:45:59.489Z,97460.81
2023-02-24T22:53:26.106Z,97427.50
2023-02-24T22:55:56.936Z,97441.19
2023-02-24T22:58:25.766Z,97456.84
2023-02-24T23:00:55.616Z,97425.81
2023-02-24T23:03:28.722Z,97450.25
2023-02-24T23:06:12.780Z,97427.50
2023-02-24T23:08:44.085Z,97370.47
2023-02-24T23:11:21.251Z,97425.53
2023-02-24T23:13:51.471Z,97366.53
2023-02-24T23:16:27.517Z,97384.16
2023-02-24T23:18:58.787Z,97400.31
2023-02-24T23:21:35.455Z,97359.44
2023-02-24T23:24:05.702Z,97380.41
2023-02-24T23:26:44.169Z,97381.03
2023-02-24T23:29:15.571Z,97332.78
2023-02-24T23:31:45.365Z,97332.94
2023-02-24T23:34:14.664Z,97349.41
2023-02-24T23:36:46.236Z,97352.22
2023-02-24T23:39:18.212Z,97361.28
2023-02-24T23:41:46.497Z,97302.28
2023-02-24T23:44:14.626Z,97345.63
2023-02-24T23:46:43.042Z,97345.47
2023-02-24T23:49:11.603Z,97354.69
2023-02-24T23:51:48.065Z,97342.66
2023-02-24T23:54:20.586Z,97292.75
2023-02-24T23:56:49.215Z,97357.00
2023-02-24T23:59:17.326Z,97346.28
